createdAt,value
2023-02-28T00:01:30.976Z,102060.19
2023-02-28T00:04:00.357Z,102105.41
2023-02-28T00:06:28.802Z,102101.91
2023-02-28T00:08:59.561Z,102107.88
2023-02-28T00:11:27.741Z,102107.97
2023-02-28T00:13:57.795Z,102107.13
2023-02-28T00:16:25.691Z,102106.28
2023-02-28T00:18:53.551Z,102108.03
2023-02-28T00:21:22.952Z,102041.25
2023-02-28T00:23:50.868Z,102105.38
2023-02-28T00:26:21.595Z,102104.47
2023-02-28T00:28:50.507Z,102100.28
2023-02-28T00:31:18.254Z,102089.44
2023-02-28T00:33:46.091Z,102109.03
2023-02-28T00:36:16.102Z,102069.63
2023-02-28T00:38:45.240Z,102075.78
2023-02-28T00:41:13.034Z,102108.31
2023-02-28T00:43:42.077Z,102111.03
2023-02-28T00:46:10.089Z,102107.59
2023-02-28T00:48:38.430Z,102106.63
2023-02-28T00:51:06.903Z,102088.84
2023-02-28T00:53:35.158Z,102118.03
2023-02-28T00:56:04.586Z,102084.47
2023-02-28T00:58:33.970Z,102106.78
2023-02-28T01:01:02.005Z,102108.59
2023-02-28T01:03:30.234Z,102109.59
2023-02-28T01:05:58.362Z,102109.72
2023-02-28T01:08:26.931Z,102106.31
2023-02-28T01:10:54.872Z,102091.66
2023-02-28T01:13:26.192Z,102098.41
2023-02-28T01:15:56.981Z,102103.63
2023-02-28T01:18:26.434Z,102090.91
2023-02-28T01:20:54.634Z,102105.50
2023-02-28T01:23:24.242Z,102109.00
2023-02-28T01:25:52.203Z,102081.81
2023-02-28T01:28:19.995Z,102107.56
2023-02-28T01:30:51.616Z,102108.50
2023-02-28T01:33:19.385Z,102108.38
2023-02-28T01:35:47.193Z,102106.63
2023-02-28T01:38:22.217Z,102104.06
2023-02-28T01:40:50.524Z,102103.94
2023-02-28T01:43:23.041Z,102110.88
2023-02-28T01:45:52.386Z,102099.59
2023-02-28T01:48:23.373Z,102105.75
2023-02-28T01:50:59.094Z,102097.13
2023-02-28T01:53:34.328Z,102086.78
2023-02-28T01:56:02.560Z,102089.25
2023-02-28T01:58:30.350Z,102086.00
2023-02-28T02:00:59.668Z,102091.13
2023-02-28T02:03:28.040Z,102087.59
2023-02-28T02:05:55.813Z,102091.94
2023-02-28T02:08:26.526Z,102090.19
2023-02-28T02:10:58.137Z,102082.38
2023-02-28T02:13:42.638Z,102073.69
2023-02-28T02:16:25.722Z,102084.06
2023-02-28T02:18:56.676Z,102072.91
2023-02-28T02:22:02.445Z,102077.28
2023-02-28T02:24:56.060Z,102051.56
2023-02-28T02:27:38.509Z,102066.06
2023-02-28T02:30:45.797Z,102051.44
2023-02-28T02:33:38.394Z,102064.38
2023-02-28T02:36:15.537Z,102066.06
2023-02-28T02:38:51.854Z,102015.50
2023-02-28T02:41:27.793Z,102069.53
2023-02-28T02:44:04.359Z,102065.22
2023-02-28T02:46:37.530Z,102067.78
2023-02-28T02:49:10.422Z,102057.34
2023-02-28T02:51:42.695Z,102046.53
2023-02-28T02:54:16.795Z,102062.66
2023-02-28T02:56:47.349Z,102057.44
2023-02-28T02:59:21.922Z,102040.44
2023-02-28T03:01:52.753Z,102062.91
2023-02-28T03:04:23.479Z,102052.75
2023-02-28T03:06:55.685Z,102064.13
2023-02-28T03:09:23.472Z,102064.22
2023-02-28T03:11:53.913Z,102062.69
2023-02-28T03:14:30.837Z,102051.44
2023-02-28T03:17:20.898Z,102055.91
2023-02-28T03:20:17.547Z,102058.44
2023-02-28T03:23:10.960Z,102054.16
2023-02-28T03:25:46.629Z,102029.53
2023-02-28T03:28:20.209Z,102046.63
2023-02-28T03:30:54.669Z,102052.72
2023-02-28T03:33:26.348Z,102052.81
2023-02-28T03:36:01.569Z,102019.56
2023-02-28T03:38:35.815Z,102024.84
2023-02-28T03:41:08.683Z,102051.19
2023-02-28T03:43:42.940Z,102049.38
2023-02-28T03:46:22.672Z,102039.31
2023-02-28T03:48:55.620Z,102055.72
2023-02-28T03:51:26.374Z,102057.41
2023-02-28T03:54:00.863Z,102057.50
2023-02-28T03:56:33.506Z,102061.81
2023-02-28T03:59:07.228Z,102062.69
2023-02-28T04:01:42.311Z,102030.25
2023-02-28T04:04:11.100Z,102068.03
2023-02-28T04:06:39.446Z,102062.94
2023-02-28T04:09:14.808Z,102066.31
2023-02-28T04:11:44.521Z,102057.59
2023-02-28T04:14:13.525Z,102061.09
2023-02-28T04:16:43.229Z,102061.91
2023-02-28T04:19:12.869Z,102049.94
2023-02-28T04:21:42.738Z,102064.41
2023-02-28T04:24:15.507Z,102066.13
2023-02-28T04:26:52.429Z,102057.56
2023-02-28T04:29:25.046Z,102066.19
2023-02-28T04:31:54.162Z,102064.34
2023-02-28T04:34:22.516Z,102069.53
2023-02-28T04:37:02.722Z,102060.97
2023-02-28T04:39:39.735Z,102071.31
2023-02-28T04:42:08.050Z,102065.38
2023-02-28T04:44:35.975Z,102069.53
2023-02-28T04:47:03.720Z,102074.66
2023-02-28T04:49:31.466Z,102059.34
2023-02-28T04:51:59.241Z,102077.25
2023-02-28T04:54:27.404Z,102037.03
2023-02-28T04:56:56.605Z,102070.38
2023-02-28T04:59:24.382Z,102081.56
2023-02-28T05:01:52.194Z,102080.63
2023-02-28T05:04:20.038Z,102074.53
2023-02-28T05:06:47.904Z,102077.09
2023-02-28T05:09:15.992Z,102052.34
2023-02-28T05:11:43.942Z,102086.66
2023-02-28T05:14:15.884Z,102083.22
2023-02-28T05:16:44.449Z,102067.97
2023-02-28T05:19:19.750Z,101967.03
2023-02-28T05:21:53.796Z,102082.44
2023-02-28T05:24:23.920Z,102082.22
2023-02-28T05:26:53.794Z,102091.53
2023-02-28T05:29:23.210Z,102086.34
2023-02-28T05:31:51.225Z,102093.25
2023-02-28T05:34:19.165Z,102079.59
2023-02-28T05:37:22.833Z,102000.97
2023-02-28T05:39:50.641Z,102101.97
2023-02-28T05:42:18.441Z,102098.47
2023-02-28T05:44:48.294Z,102097.59
2023-02-28T05:47:16.582Z,102102.81
2023-02-28T05:49:44.541Z,102105.38
2023-02-28T05:52:12.308Z,102095.13
2023-02-28T05:54:40.200Z,102101.91
2023-02-28T05:57:22.794Z,102101.94
2023-02-28T05:59:53.531Z,102105.34
2023-02-28T06:02:21.384Z,102096.69
2023-02-28T06:04:49.202Z,102082.22
2023-02-28T06:07:18.563Z,102090.81
2023-02-28T06:09:46.275Z,102101.91
2023-02-28T06:12:14.037Z,102105.47
2023-02-28T06:14:41.997Z,102099.34
2023-02-28T06:17:12.102Z,102108.09
2023-02-28T06:19:42.206Z,102107.22
2023-02-28T06:22:09.977Z,102112.41
2023-02-28T06:24:37.793Z,102113.25
2023-02-28T06:27:06.257Z,102117.66
2023-02-28T06:29:35.123Z,102114.25
2023-02-28T06:32:03.280Z,102122.97
2023-02-28T06:34:32.429Z,102122.97
2023-02-28T06:37:03.271Z,102122.97
2023-02-28T06:39:31.138Z,102132.44
2023-02-28T06:41:58.979Z,102128.09
2023-02-28T06:44:26.769Z,102128.16
2023-02-28T06:46:54.594Z,102134.94
2023-02-28T06:49:22.519Z,102104.16
2023-02-28T06:51:51.603Z,102143.56
2023-02-28T06:54:19.397Z,102145.34
2023-02-28T06:56:47.739Z,102152.22
2023-02-28T06:59:15.813Z,102156.50
2023-02-28T07:01:43.571Z,102154.66
2023-02-28T07:04:11.521Z,102153.03
2023-02-28T07:06:39.313Z,102158.97
2023-02-28T07:09:09.347Z,102158.97
2023-02-28T07:11:37.108Z,102163.28
2023-02-28T07:14:05.001Z,102155.41
2023-02-28T07:16:32.841Z,102160.59
2023-02-28T07:19:00.670Z,102165.78
2023-02-28T07:21:28.980Z,102129.72
2023-02-28T07:23:58.559Z,102164.81
2023-02-28T07:26:27.637Z,102164.78
2023-02-28T07:28:55.438Z,102163.91
2023-02-28T07:31:26.670Z,102168.16
2023-02-28T07:33:54.947Z,102168.94
2023-02-28T07:36:22.798Z,102165.44
2023-02-28T07:38:51.771Z,102170.59
2023-02-28T07:41:21.411Z,102172.13
2023-02-28T07:43:50.700Z,102173.75
2023-02-28T07:46:22.151Z,102168.56
2023-02-28T07:48:50.265Z,102173.75
2023-02-28T07:51:18.426Z,102173.63
2023-02-28T07:53:46.239Z,102174.34
2023-02-28T07:56:14.096Z,102173.38
2023-02-28T07:58:41.904Z,102176.75
2023-02-28T08:01:12.560Z,102175.81
2023-02-28T08:03:41.274Z,102180.97
2023-02-28T08:06:16.839Z,102179.22
2023-02-28T08:08:45.388Z,102178.19
2023-02-28T08:11:13.223Z,102165.13
2023-02-28T08:13:41.164Z,102183.06
2023-02-28T08:16:08.939Z,102165.03
2023-02-28T08:18:38.514Z,102187.22
2023-02-28T08:21:10.036Z,102188.09
2023-02-28T08:23:38.230Z,102186.34
2023-02-28T08:26:06.455Z,102174.09
2023-02-28T08:28:34.382Z,102193.72
2023-02-28T08:31:02.226Z,102192.75
2023-02-28T08:33:30.250Z,102193.38
2023-02-28T08:35:59.389Z,102197.66
2023-02-28T08:38:27.202Z,102185.56
2023-02-28T08:41:01.158Z,102200.03
2023-02-28T08:43:28.982Z,102199.06
2023-02-28T08:45:58.156Z,102191.16
2023-02-28T08:48:26.854Z,102197.19
2023-02-28T08:51:07.280Z,102193.75
2023-02-28T08:53:36.433Z,102198.00
2023-02-28T08:56:06.653Z,102194.63
2023-02-28T08:58:35.625Z,102207.44
2023-02-28T09:01:10.468Z,102170.47
2023-02-28T09:03:38.404Z,102198.44
2023-02-28T09:06:07.813Z,102196.69
2023-02-28T09:08:38.756Z,102191.22
2023-02-28T09:11:07.056Z,102200.81
2023-02-28T09:13:38.223Z,102199.06
2023-02-28T09:16:07.919Z,102199.94
2023-02-28T09:18:37.004Z,102191.91
2023-02-28T09:21:07.168Z,102185.81
2023-02-28T09:23:35.052Z,102170.63
2023-02-28T09:26:02.883Z,102189.50
2023-02-28T09:28:30.734Z,102181.44
2023-02-28T09:30:59.888Z,102175.75
2023-02-28T09:33:28.366Z,102193.69
2023-02-28T09:36:01.196Z,102184.94
2023-02-28T09:38:31.237Z,102183.16
2023-02-28T09:41:01.590Z,102181.25
2023-02-28T09:43:33.940Z,102154.72
2023-02-28T09:46:14.341Z,102176.97
2023-02-28T09:48:46.495Z,102179.44
2023-02-28T09:51:26.226Z,102175.13
2023-02-28T09:54:01.368Z,102178.44
2023-02-28T09:56:35.180Z,102176.47
2023-02-28T09:59:08.193Z,102179.94
2023-02-28T10:01:41.206Z,102172.56
2023-02-28T10:04:18.639Z,102170.91
2023-02-28T10:06:50.700Z,102180.66
2023-02-28T10:09:24.620Z,102165.56
2023-02-28T10:11:56.087Z,102167.13
2023-02-28T10:14:28.279Z,102181.97
2023-02-28T10:16:59.894Z,102168.06
2023-02-28T10:19:33.840Z,102171.03
2023-02-28T10:22:07.264Z,102142.69
2023-02-28T10:24:46.540Z,102170.97
2023-02-28T10:27:18.390Z,102179.09
2023-02-28T10:29:47.810Z,102172.25
2023-02-28T10:32:18.819Z,102174.28
2023-02-28T10:35:00.138Z,102154.25
2023-02-28T10:37:32.836Z,102185.13
2023-02-28T10:40:01.967Z,102180.16
2023-02-28T10:42:31.689Z,102176.81
2023-02-28T10:45:15.763Z,102164.31
2023-02-28T10:47:54.978Z,102174.78
2023-02-28T10:50:31.062Z,102166.75
2023-02-28T10:53:10.986Z,102150.81
2023-02-28T10:55:40.674Z,102149.25
2023-02-28T10:58:23.133Z,102158.38
2023-02-28T11:00:51.119Z,102161.25
2023-02-28T11:03:34.218Z,102150.69
2023-02-28T11:06:08.815Z,102147.72
2023-02-28T11:08:45.446Z,102151.72
2023-02-28T11:11:14.781Z,102139.69
2023-02-28T11:13:42.722Z,102155.22
2023-02-28T11:16:13.589Z,102141.44
2023-02-28T11:18:46.027Z,102146.00
2023-02-28T11:21:20.870Z,102129.13
2023-02-28T11:23:51.372Z,102145.81
2023-02-28T11:26:38.967Z,102128.81
2023-02-28T11:29:21.756Z,102144.41
2023-02-28T11:32:12.194Z,102122.06
2023-02-28T11:34:41.184Z,102143.84
2023-02-28T11:37:14.989Z,102137.47
2023-02-28T11:39:43.512Z,102131.53
2023-02-28T11:42:41.724Z,102148.41
2023-02-28T11:45:28.754Z,102138.31
2023-02-28T11:48:04.058Z,102151.59
2023-02-28T11:50:47.920Z,102137.88
2023-02-28T11:53:24.099Z,102132.22
2023-02-28T11:56:00.490Z,102143.19
2023-02-28T11:58:38.929Z,102139.44
2023-02-28T12:01:43.674Z,102132.22
2023-02-28T12:04:26.081Z,102150.53
2023-02-28T12:06:59.210Z,102138.69
2023-02-28T12:09:41.788Z,102130.78
2023-02-28T12:12:24.496Z,102141.22
2023-02-28T12:15:16.867Z,102143.13
2023-02-28T12:17:57.405Z,102130.03
2023-02-28T12:20:35.500Z,102136.19
2023-02-28T12:23:21.784Z,102127.41
2023-02-28T12:26:07.461Z,102107.78
2023-02-28T12:28:39.897Z,102069.50
2023-02-28T12:31:19.909Z,102114.94
2023-02-28T12:33:52.599Z,102112.81
2023-02-28T12:36:23.121Z,102113.63
2023-02-28T12:38:58.865Z,102105.38
2023-02-28T12:41:36.218Z,102096.09
2023-02-28T12:44:08.143Z,102087.25
2023-02-28T12:46:43.342Z,102101.06
2023-02-28T12:49:15.128Z,102095.50
2023-02-28T12:51:43.441Z,102066.84
2023-02-28T12:54:18.289Z,102081.06
2023-02-28T12:56:55.859Z,102067.81
2023-02-28T12:59:29.303Z,102072.50
2023-02-28T13:02:28.947Z,102069.97
2023-02-28T13:05:22.013Z,102076.31
2023-02-28T13:08:28.650Z,102054.28
2023-02-28T13:10:56.666Z,102070.97
2023-02-28T13:13:26.863Z,102069.78
2023-02-28T13:16:04.787Z,102059.56
2023-02-28T13:18:38.290Z,102052.72
2023-02-28T13:21:08.920Z,102055.97
2023-02-28T13:23:59.509Z,102061.84
2023-02-28T13:27:04.463Z,102055.72
2023-02-28T13:29:35.551Z,102059.19
2023-02-28T13:32:40.039Z,102057.41
2023-02-28T13:35:38.019Z,102054.22
2023-02-28T13:38:19.116Z,102051.09
2023-02-28T13:40:46.878Z,102048.84
2023-02-28T13:43:25.292Z,102043.06
2023-02-28T13:46:14.593Z,102054.69
2023-02-28T13:48:43.344Z,102040.72
2023-02-28T13:51:41.960Z,102044.69
2023-02-28T13:54:26.804Z,102034.97
2023-02-28T13:57:07.034Z,102041.28
2023-02-28T13:59:41.178Z,102033.63
2023-02-28T14:02:40.776Z,102028.81
2023-02-28T14:05:17.838Z,102005.41
2023-02-28T14:07:50.205Z,102027.31
2023-02-28T14:10:27.431Z,102029.59
2023-02-28T14:13:15.187Z,102024.31
2023-02-28T14:15:48.103Z,102019.03
2023-02-28T14:18:21.596Z,102005.34
2023-02-28T14:20:51.998Z,102024.78
2023-02-28T14:23:35.212Z,102012.16
2023-02-28T14:26:09.697Z,101981.84
2023-02-28T14:28:52.494Z,102010.91
2023-02-28T14:31:27.149Z,101995.63
2023-02-28T14:34:15.914Z,102009.59
2023-02-28T14:36:45.956Z,102004.41
2023-02-28T14:39:17.393Z,102009.50
2023-02-28T14:41:46.690Z,101991.38
2023-02-28T14:44:20.218Z,102002.69
2023-02-28T14:46:50.741Z,102009.94
2023-02-28T14:49:29.833Z,102000.69
2023-02-28T14:52:10.590Z,101993.50
2023-02-28T14:54:40.373Z,102000.00
2023-02-28T14:57:08.315Z,102003.41
2023-02-28T14:59:37.642Z,101999.50
2023-02-28T15:02:23.846Z,101986.94
2023-02-28T15:04:58.684Z,101984.75
2023-02-28T15:07:30.297Z,101993.34
2023-02-28T15:10:20.497Z,101957.56
2023-02-28T15:12:54.720Z,101981.38
2023-02-28T15:15:40.312Z,101980.53
2023-02-28T15:18:21.988Z,101973.56
2023-02-28T15:21:10.004Z,101981.38
2023-02-28T15:23:45.752Z,101877.63
2023-02-28T15:26:35.045Z,101907.50
2023-02-28T15:29:20.808Z,101858.06
2023-02-28T15:31:57.566Z,101954.47
2023-02-28T15:34:40.624Z,101977.50
2023-02-28T15:37:35.619Z,101979.28
2023-02-28T15:40:14.963Z,101966.94
2023-02-28T15:42:45.520Z,101976.63
2023-02-28T15:45:31.210Z,101974.50
2023-02-28T15:48:12.261Z,101964.28
2023-02-28T15:50:42.142Z,101969.97
2023-02-28T15:53:16.340Z,101985.06
2023-02-28T15:55:44.508Z,101978.44
2023-02-28T15:58:15.363Z,101975.69
2023-02-28T16:00:50.470Z,101971.00
2023-02-28T16:03:42.127Z,101972.94
2023-02-28T16:06:28.128Z,101977.84
2023-02-28T16:08:55.987Z,101956.44
2023-02-28T16:11:24.420Z,101978.13
2023-02-28T16:13:57.374Z,101977.47
2023-02-28T16:16:29.163Z,101934.22
2023-02-28T16:18:56.981Z,101944.13
2023-02-28T16:21:26.154Z,101987.91
2023-02-28T16:23:54.076Z,101969.16
2023-02-28T16:26:24.873Z,101957.56
2023-02-28T16:28:54.406Z,101981.38
2023-02-28T16:31:22.658Z,101982.47
2023-02-28T16:33:51.082Z,101970.94
2023-02-28T16:36:21.730Z,101980.28
2023-02-28T16:38:50.187Z,101972.72
2023-02-28T16:41:21.129Z,101992.97
2023-02-28T16:43:53.684Z,101989.91
2023-02-28T16:46:23.297Z,101990.75
2023-02-28T16:48:52.349Z,101985.31
2023-02-28T16:51:20.532Z,101992.16
2023-02-28T16:53:48.558Z,102004.50
2023-02-28T16:56:19.500Z,101999.38
2023-02-28T16:58:47.786Z,102007.56
2023-02-28T17:01:16.399Z,102007.72
2023-02-28T17:03:45.581Z,102004.50
2023-02-28T17:06:21.061Z,102009.22
2023-02-28T17:08:48.805Z,102013.69
2023-02-28T17:11:17.050Z,102017.44
2023-02-28T17:13:44.844Z,102025.25
2023-02-28T17:16:29.512Z,102007.44
2023-02-28T17:19:04.382Z,102028.16
2023-02-28T17:21:32.654Z,102035.31
2023-02-28T17:24:01.125Z,102031.19
2023-02-28T17:26:30.070Z,102035.66
2023-02-28T17:28:59.210Z,102033.34
2023-02-28T17:31:28.500Z,102043.84
2023-02-28T17:33:56.612Z,102048.56
2023-02-28T17:36:28.527Z,102046.72
2023-02-28T17:38:57.019Z,102057.34
2023-02-28T17:41:25.263Z,102050.75
2023-02-28T17:43:53.015Z,102045.75
2023-02-28T17:46:23.794Z,102059.66
2023-02-28T17:48:52.456Z,102062.69
2023-02-28T17:51:21.882Z,102055.09
2023-02-28T17:53:52.220Z,102057.63
2023-02-28T17:56:22.570Z,102054.22
2023-02-28T17:58:50.669Z,102063.13
2023-02-28T18:01:18.833Z,102067.63
2023-02-28T18:03:46.716Z,102062.50
2023-02-28T18:06:18.869Z,102063.66
2023-02-28T18:08:46.961Z,102062.88
2023-02-28T18:11:21.989Z,102057.97
2023-02-28T18:13:51.638Z,102060.78
2023-02-28T18:16:20.449Z,102038.63
2023-02-28T18:18:48.601Z,102053.94
2023-02-28T18:21:17.572Z,102053.09
2023-02-28T18:23:49.020Z,102025.25
2023-02-28T18:26:20.249Z,102044.91
2023-02-28T18:28:48.620Z,102046.72
2023-02-28T18:31:19.216Z,102052.06
2023-02-28T18:33:50.651Z,102055.50
2023-02-28T18:36:19.181Z,102049.00
2023-02-28T18:38:47.017Z,102064.44
2023-02-28T18:41:14.737Z,102068.03
2023-02-28T18:43:44.349Z,102064.47
2023-02-28T18:46:14.438Z,102072.41
2023-02-28T18:48:42.907Z,102069.97
2023-02-28T18:51:12.586Z,102070.22
2023-02-28T18:53:41.897Z,102046.59
2023-02-28T18:56:13.268Z,102071.31
2023-02-28T18:58:43.180Z,102079.06
2023-02-28T19:01:18.215Z,102088.69
2023-02-28T19:03:46.589Z,102064.06
2023-02-28T19:06:15.177Z,102084.59
2023-02-28T19:08:43.032Z,102085.56
2023-02-28T19:11:11.239Z,102082.28
2023-02-28T19:13:39.042Z,102084.22
2023-02-28T19:16:11.883Z,102082.50
2023-02-28T19:18:42.019Z,102080.16
2023-02-28T19:21:15.482Z,102081.91
2023-02-28T19:23:43.824Z,102077.72
2023-02-28T19:26:14.044Z,102088.19
2023-02-28T19:28:41.917Z,102083.06
2023-02-28T19:31:15.082Z,102089.31
2023-02-28T19:33:43.374Z,102087.06
2023-02-28T19:36:12.576Z,102084.63
2023-02-28T19:38:40.893Z,102091.56
2023-02-28T19:41:11.391Z,102084.00
2023-02-28T19:43:39.440Z,102086.69
2023-02-28T19:46:09.563Z,102090.22
2023-02-28T19:48:39.078Z,102091.06
2023-02-28T19:51:09.072Z,102098.09
2023-02-28T19:53:38.565Z,102098.22
2023-02-28T19:56:08.477Z,102097.41
2023-02-28T19:58:37.114Z,102082.28
2023-02-28T20:01:09.338Z,102105.50
2023-02-28T20:03:38.532Z,102103.91
2023-02-28T20:06:09.713Z,102088.41
2023-02-28T20:08:38.553Z,102098.66
2023-02-28T20:11:07.623Z,102101.28
2023-02-28T20:13:36.312Z,102097.91
2023-02-28T20:16:09.506Z,102080.34
2023-02-28T20:18:40.125Z,102106.16
2023-02-28T20:21:09.418Z,102102.75
2023-02-28T20:23:38.754Z,102096.03
2023-02-28T20:26:06.904Z,102102.22
2023-02-28T20:28:34.620Z,102095.34
2023-02-28T20:31:02.647Z,102098.06
2023-02-28T20:33:30.628Z,102090.31
2023-02-28T20:36:05.269Z,102095.72
2023-02-28T20:38:32.979Z,102094.16
2023-02-28T20:41:04.644Z,102089.94
2023-02-28T20:43:32.472Z,102081.41
2023-02-28T20:46:01.742Z,102076.19
2023-02-28T20:48:30.465Z,102083.31
2023-02-28T20:51:00.040Z,102080.75
2023-02-28T20:53:29.684Z,102082.66
2023-02-28T20:55:58.448Z,102089.78
2023-02-28T20:58:28.005Z,102085.47
2023-02-28T21:01:01.106Z,102081.28
2023-02-28T21:03:29.324Z,102076.09
2023-02-28T21:06:05.586Z,102089.25
2023-02-28T21:08:38.149Z,102074.72
2023-02-28T21:11:08.909Z,102070.66
2023-02-28T21:13:37.461Z,102049.00
2023-02-28T21:16:06.872Z,102070.47
2023-02-28T21:18:35.584Z,102073.81
2023-02-28T21:21:04.262Z,102071.44
2023-02-28T21:23:32.565Z,102065.44
2023-02-28T21:26:06.985Z,102063.63
2023-02-28T21:28:38.172Z,102074.91
2023-02-28T21:31:10.190Z,102069.78
2023-02-28T21:33:39.630Z,102074.31
2023-02-28T21:36:16.251Z,102067.56
2023-02-28T21:38:46.613Z,102092.25
2023-02-28T21:41:24.034Z,102098.41
2023-02-28T21:43:53.194Z,102091.47
2023-02-28T21:46:27.994Z,102098.50
2023-02-28T21:48:56.725Z,102104.81
2023-02-28T21:51:26.283Z,102104.81
2023-02-28T21:53:54.119Z,102098.91
2023-02-28T21:56:27.829Z,102109.25
2023-02-28T21:59:00.719Z,102110.25
2023-02-28T22:01:31.290Z,102107.72
2023-02-28T22:04:00.256Z,102110.41
2023-02-28T22:06:30.284Z,102083.81
2023-02-28T22:09:00.178Z,102102.72
2023-02-28T22:11:31.805Z,102100.97
2023-02-28T22:14:00.616Z,102105.38
2023-02-28T22:16:33.205Z,102097.88
2023-02-28T22:19:07.579Z,102101.56
2023-02-28T22:21:36.280Z,102104.91
2023-02-28T22:24:05.617Z,102105.84
2023-02-28T22:26:35.062Z,102105.00
2023-02-28T22:29:06.127Z,102102.50
2023-02-28T22:31:36.185Z,102079.56
2023-02-28T22:34:09.276Z,102106.19
2023-02-28T22:36:38.139Z,102112.25
2023-02-28T22:39:08.709Z,102107.91
2023-02-28T22:41:38.230Z,102103.47
2023-02-28T22:44:07.616Z,102105.22
2023-02-28T22:46:36.867Z,102078.72
2023-02-28T22:49:08.139Z,102098.44
2023-02-28T22:51:37.877Z,102068.44
2023-02-28T22:54:06.059Z,102061.69
2023-02-28T22:56:34.261Z,102070.41
2023-02-28T22:59:03.927Z,102103.75
2023-02-28T23:01:33.825Z,102106.47
2023-02-28T23:04:05.758Z,102102.94
2023-02-28T23:06:42.056Z,102104.63
2023-02-28T23:09:17.939Z,102107.25
2023-02-28T23:11:48.600Z,102098.03
2023-02-28T23:14:20.041Z,102115.16
2023-02-28T23:16:49.416Z,102099.03
2023-02-28T23:19:22.043Z,102114.56
2023-02-28T23:21:50.104Z,102102.50
2023-02-28T23:24:22.544Z,102068.41
2023-02-28T23:26:52.410Z,102099.34
2023-02-28T23:29:23.021Z,102100.56
2023-02-28T23:31:51.303Z,102100.41
2023-02-28T23:34:40.216Z,102082.41
2023-02-28T23:37:10.765Z,102074.78
2023-02-28T23:39:38.487Z,102080.06
2023-02-28T23:42:06.316Z,102057.22
2023-02-28T23:44:35.447Z,102091.25
2023-02-28T23:47:03.436Z,102070.13
2023-02-28T23:49:31.272Z,102073.66
2023-02-28T23:51:59.146Z,102098.31
2023-02-28T23:54:26.943Z,102098.22
2023-02-28T23:56:55.008Z,102037.56
2023-02-28T23:59:22.877Z,102106.06
